Tak, Thailand

11:20 AM ICT on August 31, 2014 (GMT +0700)
Sukhothai | Change Station
CLOSE
Current Station
Airport
Location: SUKHOTHAI,
Elevation: 177 ft
Nearby Weather Stations

Elev 177 ft 17.24 °N, 99.82 °E | Updated 20 minutes ago

Mostly Cloudy
Mostly Cloudy
82 °F
Feels Like 91 °F
N
0
Wind Variable Wind from North

Today
High -- | Low -- °F
--% Chance of Precip.
Yesterday
High -- | Low -- °F
Precip. -- in
6:09 AM 6:37 PM
Waxing Crescent, 27% visible
Pressure 29.80 in
Visibility 6.2 miles
Clouds Mostly Cloudy 2400 ft
Mostly Cloudy 12000 ft
Mostly Cloudy 30000 ft
Heat Index 91 °F
Dew Point 77 °F
Humidity 84%
Rainfall 0.00 in
Snow Depth Not available.
UV 8 out of 12
Pollen Not available.
Air Quality Not available.
Flu Activity Not available.
METAR VTPO 310400Z 00000KT 9999 BKN024 BKN120 BKN300 28/25 Q1009

More Conditions Fewer Conditions

Pressure 29.80 in
Visibility 6.2 miles
Clouds Mostly Cloudy 2400 ft
Mostly Cloudy 12000 ft
Mostly Cloudy 30000 ft
Heat Index 91 °F
Dew Point 77 °F
Humidity 84%
Rainfall 0.00 in
Snow Depth Not available.
UV 8 out of 12
Pollen Not available.
Air Quality Not available.
Flu Activity Not available.
METAR VTPO 310400Z 00000KT 9999 BKN024 BKN120 BKN300 28/25 Q1009

More Conditions Fewer Conditions

10-Day Weather Forecast

Almanac

Astronomy

Aug. 31, 2014 Rise Set
Actual Time 6:09 AM ICT 6:37 PM ICT
Civil Twilight 5:47 AM ICT 6:59 PM ICT
Nautical Twilight 5:22 AM ICT 7:25 PM ICT
Astronomical Twilight 4:56 AM ICT 7:51 PM ICT
Moon 10:35 AM ICT 10:23 PM ICT
Length of Visible Light 13h 11m
Length of Day
12h 28m
Tomorrow will be 0m 54s shorter.
Waxing Crescent, 27% of the Moon is Illuminated
Today
Waxing Crescent
Sep 2
First Quarter
Sep 8
Full
Sep 15
Last Quarter
Sep 24
New

Yesterday's Extremes

Country Highs Country Lows

Community

WunderPhotos

Upload Photos

1,748,776 photos uploaded!

Nearby

Snow Depth

Not available.

Earthquake Activity

City Distance Mag. Time & Date
No recent earthquake activity has been reported nearby.
Minimum magnitude displayed is 2.5.

Coastal Water Temperatures

Place Temperature
No Stations Reporting

Nearby Weather Stations